createdAt,value
2018-08-30T00:01:00.172Z,1011.84
2018-08-30T00:02:09.873Z,1011.83
2018-08-30T00:03:19.822Z,1011.78
2018-08-30T00:04:29.251Z,1011.83
2018-08-30T00:05:38.656Z,1011.86
2018-08-30T00:06:48.587Z,1011.87
2018-08-30T00:07:58.259Z,1011.98
2018-08-30T00:09:08.187Z,1011.95
2018-08-30T00:10:18.111Z,1011.96
2018-08-30T00:11:27.626Z,1012
2018-08-30T00:12:37.037Z,1011.97
2018-08-30T00:13:45.946Z,1011.99
2018-08-30T00:14:55.123Z,1012.04
2018-08-30T00:16:04.294Z,1012.01
2018-08-30T00:17:13.472Z,1011.97
2018-08-30T00:18:22.883Z,1012.05
2018-08-30T00:19:32.297Z,1011.98
2018-08-30T00:20:41.749Z,1012.04
2018-08-30T00:21:51.454Z,1012.05
2018-08-30T00:23:00.367Z,1012.07
2018-08-30T00:24:10.059Z,1012.08
2018-08-30T00:25:19.753Z,1012.12
2018-08-30T00:26:29.180Z,1012.15
2018-08-30T00:27:38.612Z,1012.18
2018-08-30T00:28:47.530Z,1012.18
2018-08-30T00:29:56.701Z,1012.2
2018-08-30T00:31:06.385Z,1012.17
2018-08-30T00:32:16.075Z,1012.2
2018-08-30T00:33:25.246Z,1012.25
2018-08-30T00:34:34.157Z,1012.27
2018-08-30T00:35:43.578Z,1012.33
2018-08-30T00:36:52.750Z,1012.26
2018-08-30T00:38:01.954Z,1012.35
2018-08-30T00:39:11.370Z,1012.41
2018-08-30T00:40:20.781Z,1012.47
2018-08-30T00:41:30.822Z,1012.45
2018-08-30T00:42:39.621Z,1012.42
2018-08-30T00:43:49.052Z,1012.47
2018-08-30T00:44:58.478Z,1012.53
2018-08-30T00:46:07.908Z,1012.5
2018-08-30T00:47:17.576Z,1012.53
2018-08-30T00:48:26.472Z,1012.58
2018-08-30T00:49:35.895Z,1012.55
2018-08-30T00:50:45.060Z,1012.59
2018-08-30T00:51:54.473Z,1012.56
2018-08-30T00:53:03.888Z,1012.62
2018-08-30T00:54:13.049Z,1012.59
2018-08-30T00:55:22.711Z,1012.6
2018-08-30T00:56:32.178Z,1012.61
2018-08-30T00:57:41.591Z,1012.63
2018-08-30T00:58:50.759Z,1012.61
2018-08-30T01:00:00.419Z,1012.63
2018-08-30T01:01:09.598Z,1012.65
2018-08-30T01:02:18.749Z,1012.72
2018-08-30T01:03:28.444Z,1012.72
2018-08-30T01:04:37.615Z,1012.7
2018-08-30T01:05:47.054Z,1012.72
2018-08-30T01:06:56.986Z,1012.71
2018-08-30T01:08:06.662Z,1012.78
2018-08-30T01:09:16.073Z,1012.77
2018-08-30T01:10:25.234Z,1012.72
2018-08-30T01:11:34.426Z,1012.74
2018-08-30T01:12:43.846Z,1012.75
2018-08-30T01:13:53.264Z,1012.78
2018-08-30T01:15:02.187Z,1012.77
2018-08-30T01:16:11.337Z,1012.77
2018-08-30T01:17:20.489Z,1012.77
2018-08-30T01:18:29.653Z,1012.77
2018-08-30T01:19:39.585Z,1012.82
2018-08-30T01:20:49.270Z,1012.79
2018-08-30T01:21:58.426Z,1012.8
2018-08-30T01:23:07.570Z,1012.85
2018-08-30T01:24:17.008Z,1012.85
2018-08-30T01:25:26.457Z,1012.81
2018-08-30T01:26:35.363Z,1012.87
2018-08-30T01:27:44.539Z,1012.91
2018-08-30T01:28:54.206Z,1012.89
2018-08-30T01:30:03.361Z,1012.9
2018-08-30T01:31:12.798Z,1012.86
2018-08-30T01:32:22.221Z,1012.88
2018-08-30T01:33:31.651Z,1012.88
2018-08-30T01:34:40.821Z,1012.9
2018-08-30T01:35:49.998Z,1012.96
2018-08-30T01:36:59.171Z,1012.93
2018-08-30T01:38:08.590Z,1012.94
2018-08-30T01:39:18.525Z,1012.94
2018-08-30T01:40:27.685Z,1012.95
2018-08-30T01:41:37.373Z,1012.92
2018-08-30T01:42:46.541Z,1012.96
2018-08-30T01:43:55.962Z,1012.92
2018-08-30T01:45:05.648Z,1012.95
2018-08-30T01:46:14.858Z,1012.97
2018-08-30T01:47:24.533Z,1013
2018-08-30T01:48:33.693Z,1013.01
2018-08-30T01:49:42.844Z,1013.05
2018-08-30T01:50:52.264Z,1013.05
2018-08-30T01:52:01.417Z,1013.04
2018-08-30T01:53:10.831Z,1013.05
2018-08-30T01:54:20.245Z,1013.06
2018-08-30T01:55:29.964Z,1013.09
2018-08-30T01:56:39.386Z,1013.08
2018-08-30T01:57:48.355Z,1013.11
2018-08-30T01:58:57.790Z,1013.16
2018-08-30T02:00:07.734Z,1013.19
2018-08-30T02:01:17.416Z,1013.18
2018-08-30T02:02:26.832Z,1013.16
2018-08-30T02:03:36.500Z,1013.17
2018-08-30T02:04:45.406Z,1013.17
2018-08-30T02:05:54.850Z,1013.18
2018-08-30T02:07:04.534Z,1013.17
2018-08-30T02:08:13.702Z,1013.21
2018-08-30T02:09:22.867Z,1013.19
2018-08-30T02:10:32.044Z,1013.2
2018-08-30T02:11:41.202Z,1013.21
2018-08-30T02:12:49.852Z,1013.21
2018-08-30T02:13:59.556Z,1013.24
2018-08-30T02:15:09.005Z,1013.24
2018-08-30T02:16:18.441Z,1013.28
2018-08-30T02:17:27.606Z,1013.25
2018-08-30T02:18:37.538Z,1013.21
2018-08-30T02:19:47.220Z,1013.24
2018-08-30T02:20:57.192Z,1013.25
2018-08-30T02:22:06.625Z,1013.28
2018-08-30T02:23:16.315Z,1013.29
2018-08-30T02:24:26.002Z,1013.25
2018-08-30T02:25:35.161Z,1013.24
2018-08-30T02:26:44.847Z,1013.26
2018-08-30T02:27:54.025Z,1013.2
2018-08-30T02:29:03.188Z,1013.22
2018-08-30T02:30:12.088Z,1013.27
2018-08-30T02:31:21.518Z,1013.3
2018-08-30T02:32:30.965Z,1013.25
2018-08-30T02:33:40.391Z,1013.27
2018-08-30T02:34:49.283Z,1013.28
2018-08-30T02:35:58.451Z,1013.33
2018-08-30T02:37:07.628Z,1013.33
2018-08-30T02:38:17.309Z,1013.32
2018-08-30T02:39:27.260Z,1013.29
2018-08-30T02:40:36.703Z,1013.29
2018-08-30T02:41:46.139Z,1013.3
2018-08-30T02:42:56.103Z,1013.31
2018-08-30T02:44:05.772Z,1013.28
2018-08-30T02:45:14.947Z,1013.31
2018-08-30T02:46:24.128Z,1013.31
2018-08-30T02:47:33.550Z,1013.35
2018-08-30T02:48:43.228Z,1013.33
2018-08-30T02:49:52.911Z,1013.39
2018-08-30T02:51:02.103Z,1013.4
2018-08-30T02:52:11.801Z,1013.38
2018-08-30T02:53:21.257Z,1013.43
2018-08-30T02:54:30.937Z,1013.4
2018-08-30T02:55:39.933Z,1013.43
2018-08-30T02:56:49.124Z,1013.39
2018-08-30T02:57:58.298Z,1013.42
2018-08-30T02:59:07.985Z,1013.42
2018-08-30T03:00:17.156Z,1013.43
2018-08-30T03:01:26.573Z,1013.45
2018-08-30T03:02:35.730Z,1013.46
2018-08-30T03:03:45.183Z,1013.45
2018-08-30T03:04:54.637Z,1013.44
2018-08-30T03:06:04.077Z,1013.46
2018-08-30T03:07:14.016Z,1013.49
2018-08-30T03:08:23.429Z,1013.47
2018-08-30T03:09:32.602Z,1013.47
2018-08-30T03:10:42.031Z,1013.52
2018-08-30T03:11:51.458Z,1013.53
2018-08-30T03:13:01.396Z,1013.5
2018-08-30T03:14:10.580Z,1013.48
2018-08-30T03:15:20.258Z,1013.53
2018-08-30T03:16:29.708Z,1013.47
2018-08-30T03:17:38.867Z,1013.5
2018-08-30T03:18:48.573Z,1013.52
2018-08-30T03:19:57.498Z,1013.55
2018-08-30T03:21:06.921Z,1013.53
2018-08-30T03:22:16.333Z,1013.51
2018-08-30T03:23:26.025Z,1013.55
2018-08-30T03:24:35.467Z,1013.55
2018-08-30T03:25:44.643Z,1013.55
2018-08-30T03:26:54.354Z,1013.54
2018-08-30T03:28:03.520Z,1013.57
2018-08-30T03:29:13.206Z,1013.57
2018-08-30T03:30:23.028Z,1013.57
2018-08-30T03:31:33.026Z,1013.6
2018-08-30T03:32:42.737Z,1013.56
2018-08-30T03:33:51.663Z,1013.57
2018-08-30T03:35:01.378Z,1013.6
2018-08-30T03:36:10.817Z,1013.63
2018-08-30T03:37:20.224Z,1013.61
2018-08-30T03:38:30.347Z,1013.6
2018-08-30T03:39:40.320Z,1013.62
2018-08-30T03:40:49.763Z,1013.65
2018-08-30T03:41:59.468Z,1013.65
2018-08-30T03:43:08.668Z,1013.66
2018-08-30T03:44:18.098Z,1013.7
2018-08-30T03:45:27.524Z,1013.69
2018-08-30T03:46:36.956Z,1013.71
2018-08-30T03:47:46.409Z,1013.71
2018-08-30T03:48:55.844Z,1013.69
2018-08-30T03:50:05.549Z,1013.71
2018-08-30T03:51:14.974Z,1013.74
2018-08-30T03:52:23.629Z,1013.71
2018-08-30T03:53:33.313Z,1013.71
2018-08-30T03:54:43.012Z,1013.75
2018-08-30T03:55:52.700Z,1013.74
2018-08-30T03:57:02.130Z,1013.78
2018-08-30T03:58:11.537Z,1013.77
2018-08-30T03:59:21.224Z,1013.79
2018-08-30T04:00:30.651Z,1013.82
2018-08-30T04:01:39.823Z,1013.85
2018-08-30T04:02:48.995Z,1013.83
2018-08-30T04:03:58.705Z,1013.85
2018-08-30T04:05:08.409Z,1013.89
2018-08-30T04:06:18.095Z,1013.9
2018-08-30T04:07:28.031Z,1013.9
2018-08-30T04:08:37.703Z,1013.94
2018-08-30T04:09:47.409Z,1013.92
2018-08-30T04:10:57.292Z,1013.89
2018-08-30T04:12:06.231Z,1013.91
2018-08-30T04:13:15.474Z,1013.92
2018-08-30T04:14:24.759Z,1013.88
2018-08-30T04:15:33.951Z,1013.91
2018-08-30T04:16:43.392Z,1013.96
2018-08-30T04:17:52.569Z,1013.94
2018-08-30T04:19:01.486Z,1013.94
2018-08-30T04:20:10.919Z,1013.97
2018-08-30T04:21:20.619Z,1013.96
2018-08-30T04:22:29.779Z,1013.99
2018-08-30T04:23:39.444Z,1013.98
2018-08-30T04:24:49.137Z,1013.95
2018-08-30T04:25:58.573Z,1013.99
2018-08-30T04:27:08.350Z,1014.01
2018-08-30T04:28:18.258Z,1014.01
2018-08-30T04:29:27.681Z,1014.09
2018-08-30T04:30:36.868Z,1014.08
2018-08-30T04:31:46.036Z,1014.09
2018-08-30T04:32:55.463Z,1014.14
2018-08-30T04:34:04.884Z,1014.14
2018-08-30T04:35:13.811Z,1014.14
2018-08-30T04:36:22.981Z,1014.12
2018-08-30T04:37:32.155Z,1014.16
2018-08-30T04:38:41.857Z,1014.15
2018-08-30T04:39:51.035Z,1014.15
2018-08-30T04:41:00.991Z,1014.19
2018-08-30T04:42:10.999Z,1014.17
2018-08-30T04:43:20.844Z,1014.19
2018-08-30T04:44:30.841Z,1014.21
2018-08-30T04:45:40.011Z,1014.18
2018-08-30T04:46:49.440Z,1014.2
2018-08-30T04:47:58.614Z,1014.19
2018-08-30T04:49:08.301Z,1014.17
2018-08-30T04:50:17.771Z,1014.18
2018-08-30T04:51:27.337Z,1014.24
2018-08-30T04:52:36.505Z,1014.24
2018-08-30T04:53:45.934Z,1014.27
2018-08-30T04:54:55.091Z,1014.29
2018-08-30T04:56:04.258Z,1014.33
2018-08-30T04:57:13.718Z,1014.34
2018-08-30T04:58:22.905Z,1014.38
2018-08-30T04:59:32.073Z,1014.36
2018-08-30T05:00:42.438Z,1014.35
2018-08-30T05:01:51.745Z,1014.38
2018-08-30T05:03:00.973Z,1014.43
2018-08-30T05:04:10.637Z,1014.41
2018-08-30T05:05:20.084Z,1014.44
2018-08-30T05:06:29.234Z,1014.36
2018-08-30T05:07:38.688Z,1014.39
2018-08-30T05:08:47.847Z,1014.41
2018-08-30T05:09:57.756Z,1014.44
2018-08-30T05:11:07.494Z,1014.48
2018-08-30T05:12:16.908Z,1014.47
2018-08-30T05:13:26.099Z,1014.45
2018-08-30T05:14:35.527Z,1014.53
2018-08-30T05:15:45.236Z,1014.49
2018-08-30T05:16:54.659Z,1014.46
2018-08-30T05:18:04.094Z,1014.49
2018-08-30T05:19:13.564Z,1014.46
2018-08-30T05:20:23.506Z,1014.54
2018-08-30T05:21:33.481Z,1014.52
2018-08-30T05:22:42.632Z,1014.53
2018-08-30T05:23:51.801Z,1014.51
2018-08-30T05:25:00.708Z,1014.52
2018-08-30T05:26:10.384Z,1014.52
2018-08-30T05:27:19.810Z,1014.52
2018-08-30T05:28:29.548Z,1014.49
2018-08-30T05:29:39.023Z,1014.46
2018-08-30T05:30:48.725Z,1014.49
2018-08-30T05:31:57.627Z,1014.51
2018-08-30T05:33:06.815Z,1014.5
2018-08-30T05:34:16.230Z,1014.49
2018-08-30T05:35:25.904Z,1014.49
2018-08-30T05:36:35.400Z,1014.49
2018-08-30T05:37:44.308Z,1014.52
2018-08-30T05:38:53.540Z,1014.56
2018-08-30T05:40:02.974Z,1014.58
2018-08-30T05:41:12.655Z,1014.58
2018-08-30T05:42:21.821Z,1014.56
2018-08-30T05:43:31.242Z,1014.61
2018-08-30T05:44:40.994Z,1014.63
2018-08-30T05:45:49.599Z,1014.63
2018-08-30T05:46:59.067Z,1014.7
2018-08-30T05:48:07.981Z,1014.67
2018-08-30T05:49:17.696Z,1014.67
2018-08-30T05:50:26.611Z,1014.69
2018-08-30T05:51:35.813Z,1014.68
2018-08-30T05:52:44.971Z,1014.72
2018-08-30T05:53:54.644Z,1014.76
2018-08-30T05:55:04.058Z,1014.77
2018-08-30T05:56:13.215Z,1014.75
2018-08-30T05:57:22.133Z,1014.76
2018-08-30T05:58:31.072Z,1014.76
2018-08-30T05:59:40.255Z,1014.78
2018-08-30T06:00:49.709Z,1014.74
2018-08-30T06:01:59.393Z,1014.8
2018-08-30T06:03:09.344Z,1014.78
2018-08-30T06:04:18.512Z,1014.79
2018-08-30T06:05:27.686Z,1014.79
2018-08-30T06:06:36.852Z,1014.75
2018-08-30T06:07:46.280Z,1014.82
2018-08-30T06:08:55.708Z,1014.82
2018-08-30T06:10:05.131Z,1014.8
2018-08-30T06:11:14.822Z,1014.78
2018-08-30T06:12:24.519Z,1014.8
2018-08-30T06:13:33.952Z,1014.81
2018-08-30T06:14:43.651Z,1014.84
2018-08-30T06:15:52.572Z,1014.86
2018-08-30T06:17:01.733Z,1014.86
2018-08-30T06:18:10.911Z,1014.87
2018-08-30T06:19:20.103Z,1014.89
2018-08-30T06:20:29.799Z,1014.91
2018-08-30T06:21:38.978Z,1014.94
2018-08-30T06:22:48.415Z,1014.96
2018-08-30T06:23:58.100Z,1014.96
2018-08-30T06:25:07.546Z,1014.99
2018-08-30T06:26:17.478Z,1015
2018-08-30T06:27:26.899Z,1015.01
2018-08-30T06:28:36.076Z,1015.02
2018-08-30T06:29:45.230Z,1015.06
2018-08-30T06:30:54.930Z,1015.06
2018-08-30T06:32:04.367Z,1015.04
2018-08-30T06:33:14.051Z,1015.12
2018-08-30T06:34:23.208Z,1015.08
2018-08-30T06:35:32.776Z,1015.06
2018-08-30T06:36:41.967Z,1015.11
2018-08-30T06:37:51.385Z,1015.07
2018-08-30T06:39:00.054Z,1015.08
2018-08-30T06:40:09.244Z,1015.12
2018-08-30T06:41:18.412Z,1015.11
2018-08-30T06:42:27.840Z,1015.09
2018-08-30T06:43:37.259Z,1015.11
2018-08-30T06:44:46.952Z,1015.12
2018-08-30T06:45:56.121Z,1015.13
2018-08-30T06:47:05.538Z,1015.16
2018-08-30T06:48:14.457Z,1015.14
2018-08-30T06:49:24.148Z,1015.16
2018-08-30T06:50:33.046Z,1015.17
2018-08-30T06:51:42.719Z,1015.18
2018-08-30T06:52:52.132Z,1015.19
2018-08-30T06:54:01.823Z,1015.19
2018-08-30T06:55:10.987Z,1015.18
2018-08-30T06:56:20.454Z,1015.21
2018-08-30T06:57:30.212Z,1015.19
2018-08-30T06:58:39.885Z,1015.22
2018-08-30T06:59:49.329Z,1015.23
2018-08-30T07:00:58.753Z,1015.21
2018-08-30T07:02:07.924Z,1015.19
2018-08-30T07:03:17.091Z,1015.2
2018-08-30T07:04:26.523Z,1015.2
2018-08-30T07:05:35.952Z,1015.26
2018-08-30T07:06:45.374Z,1015.27
2018-08-30T07:07:54.831Z,1015.31
2018-08-30T07:09:04.944Z,1015.32
2018-08-30T07:10:14.627Z,1015.29
2018-08-30T07:11:24.050Z,1015.34
2018-08-30T07:12:33.990Z,1015.36
2018-08-30T07:13:43.135Z,1015.32
2018-08-30T07:14:52.094Z,1015.36
2018-08-30T07:16:01.742Z,1015.4
2018-08-30T07:17:11.199Z,1015.4
2018-08-30T07:18:20.613Z,1015.44
2018-08-30T07:19:30.556Z,1015.44
2018-08-30T07:20:40.242Z,1015.42
2018-08-30T07:21:49.145Z,1015.5
2018-08-30T07:22:58.048Z,1015.47
2018-08-30T07:24:07.510Z,1015.49
2018-08-30T07:25:17.363Z,1015.5
2018-08-30T07:26:26.545Z,1015.5
2018-08-30T07:27:35.990Z,1015.46
2018-08-30T07:28:45.165Z,1015.58
2018-08-30T07:29:54.847Z,1015.47
2018-08-30T07:31:03.747Z,1015.56
2018-08-30T07:32:13.689Z,1015.55
2018-08-30T07:33:22.860Z,1015.53
2018-08-30T07:34:32.079Z,1015.58
2018-08-30T07:35:41.861Z,1015.54
2018-08-30T07:36:50.785Z,1015.59
2018-08-30T07:38:00.214Z,1015.56
2018-08-30T07:39:09.911Z,1015.62
2018-08-30T07:40:19.356Z,1015.6
2018-08-30T07:41:29.051Z,1015.63
2018-08-30T07:42:38.473Z,1015.65
2018-08-30T07:43:47.890Z,1015.71
2018-08-30T07:44:56.538Z,1015.73
2018-08-30T07:46:05.945Z,1015.74
2018-08-30T07:47:15.694Z,1015.75
2018-08-30T07:48:25.651Z,1015.8
2018-08-30T07:49:34.820Z,1015.75
2018-08-30T07:50:43.743Z,1015.73
2018-08-30T07:51:53.731Z,1015.79
2018-08-30T07:53:03.682Z,1015.78
2018-08-30T07:54:12.852Z,1015.76
2018-08-30T07:55:22.626Z,1015.8
2018-08-30T07:56:32.077Z,1015.83
2018-08-30T07:57:41.247Z,1015.8
2018-08-30T07:58:50.697Z,1015.85
2018-08-30T08:00:00.015Z,1015.83
2018-08-30T08:01:10.780Z,1015.89
2018-08-30T08:02:20.217Z,1015.87
2018-08-30T08:03:29.147Z,1015.87
2018-08-30T08:04:38.838Z,1015.89
2018-08-30T08:05:47.766Z,1015.88
2018-08-30T08:06:57.714Z,1015.93
2018-08-30T08:08:07.284Z,1015.87
2018-08-30T08:09:16.198Z,1015.91
2018-08-30T08:10:25.892Z,1015.87
2018-08-30T08:11:35.060Z,1015.92
2018-08-30T08:12:45.144Z,1015.93
2018-08-30T08:13:54.494Z,1015.98
2018-08-30T08:15:03.399Z,1015.97
2018-08-30T08:16:13.331Z,1016
2018-08-30T08:17:23.005Z,1016.04
2018-08-30T08:18:32.431Z,1015.99
2018-08-30T08:19:42.115Z,1016.01
2018-08-30T08:20:51.551Z,1016.02
2018-08-30T08:22:00.985Z,1016.01
2018-08-30T08:23:10.417Z,1016.07
2018-08-30T08:24:19.845Z,1016.04
2018-08-30T08:25:28.833Z,1016.02
2018-08-30T08:26:38.552Z,1016.04
2018-08-30T08:27:48.236Z,1016.03
2018-08-30T08:28:57.659Z,1016.03
2018-08-30T08:30:06.832Z,1016.02
2018-08-30T08:31:16.021Z,1016.05
2018-08-30T08:32:25.719Z,1016.03
2018-08-30T08:33:35.143Z,1016.05
2018-08-30T08:34:44.574Z,1016.06
2018-08-30T08:35:54.007Z,1016.08
2018-08-30T08:37:03.690Z,1016.09
2018-08-30T08:38:13.104Z,1016.1
2018-08-30T08:39:22.543Z,1016.11
2018-08-30T08:40:31.491Z,1016.13
2018-08-30T08:41:40.928Z,1016.06
2018-08-30T08:42:50.104Z,1016.12
2018-08-30T08:43:59.538Z,1016.13
2018-08-30T08:45:09.476Z,1016.12
2018-08-30T08:46:18.653Z,1016.15
2018-08-30T08:47:28.332Z,1016.16
2018-08-30T08:48:37.511Z,1016.1
2018-08-30T08:49:46.425Z,1016.18
2018-08-30T08:50:55.352Z,1016.19
2018-08-30T08:52:05.078Z,1016.16
2018-08-30T08:53:14.513Z,1016.16
2018-08-30T08:54:23.758Z,1016.18
2018-08-30T08:55:32.414Z,1016.2
2018-08-30T08:56:41.846Z,1016.19
2018-08-30T08:57:50.993Z,1016.2
2018-08-30T08:59:00.308Z,1016.24
2018-08-30T09:00:10.238Z,1016.23
2018-08-30T09:01:19.207Z,1016.27
2018-08-30T09:02:29.167Z,1016.25
2018-08-30T09:03:38.381Z,1016.21
2018-08-30T09:04:47.293Z,1016.22
2018-08-30T09:05:56.458Z,1016.22
2018-08-30T09:07:05.941Z,1016.17
2018-08-30T09:08:16.485Z,1016.25
2018-08-30T09:09:25.899Z,1016.24
2018-08-30T09:10:35.851Z,1016.23
2018-08-30T09:11:45.016Z,1016.19
2018-08-30T09:12:54.997Z,1016.22
2018-08-30T09:14:04.176Z,1016.26
2018-08-30T09:15:13.603Z,1016.27
2018-08-30T09:16:23.544Z,1016.24
2018-08-30T09:17:32.193Z,1016.22
2018-08-30T09:18:41.872Z,1016.24
2018-08-30T09:19:51.349Z,1016.31
2018-08-30T09:21:01.293Z,1016.27
2018-08-30T09:22:10.973Z,1016.3
2018-08-30T09:23:19.944Z,1016.24
2018-08-30T09:24:29.130Z,1016.27
2018-08-30T09:25:38.813Z,1016.3
2018-08-30T09:26:48.246Z,1016.25
2018-08-30T09:27:58.115Z,1016.22
2018-08-30T09:29:07.791Z,1016.24
2018-08-30T09:30:17.479Z,1016.23
2018-08-30T09:31:27.154Z,1016.25
2018-08-30T09:32:36.583Z,1016.29
2018-08-30T09:33:46.526Z,1016.3
2018-08-30T09:34:56.720Z,1016.27
2018-08-30T09:36:05.885Z,1016.3
2018-08-30T09:37:15.059Z,1016.25
2018-08-30T09:38:24.231Z,1016.26
2018-08-30T09:39:33.406Z,1016.24
2018-08-30T09:40:42.835Z,1016.3
2018-08-30T09:41:52.024Z,1016.33
2018-08-30T09:43:00.941Z,1016.32
2018-08-30T09:44:09.849Z,1016.36
2018-08-30T09:45:19.025Z,1016.41
2018-08-30T09:46:28.184Z,1016.38
2018-08-30T09:47:37.603Z,1016.32
2018-08-30T09:48:47.076Z,1016.39
2018-08-30T09:49:56.508Z,1016.38
2018-08-30T09:51:05.965Z,1016.38
2018-08-30T09:52:14.639Z,1016.35
2018-08-30T09:53:23.822Z,1016.39
2018-08-30T09:54:32.471Z,1016.36
2018-08-30T09:55:41.962Z,1016.4
2018-08-30T09:56:52.340Z,1016.34
2018-08-30T09:58:01.791Z,1016.34
2018-08-30T09:59:10.957Z,1016.32
2018-08-30T10:00:19.873Z,1016.4
2018-08-30T10:01:29.045Z,1016.33
2018-08-30T10:02:38.726Z,1016.35
2018-08-30T10:03:47.913Z,1016.36
2018-08-30T10:04:57.715Z,1016.34
2018-08-30T10:06:07.140Z,1016.37
2018-08-30T10:07:16.380Z,1016.37
2018-08-30T10:08:26.058Z,1016.33
2018-08-30T10:09:35.229Z,1016.34
2018-08-30T10:10:44.416Z,1016.38
2018-08-30T10:11:53.897Z,1016.33
2018-08-30T10:13:03.320Z,1016.32
2018-08-30T10:14:12.508Z,1016.33
2018-08-30T10:15:22.192Z,1016.33
2018-08-30T10:16:31.620Z,1016.31
2018-08-30T10:17:41.057Z,1016.3
2018-08-30T10:18:50.280Z,1016.34
2018-08-30T10:20:00.069Z,1016.34
2018-08-30T10:21:09.492Z,1016.39
2018-08-30T10:22:19.008Z,1016.39
2018-08-30T10:23:28.163Z,1016.34
2018-08-30T10:24:37.579Z,1016.4
2018-08-30T10:25:47.002Z,1016.46
2018-08-30T10:26:56.552Z,1016.44
2018-08-30T10:28:05.995Z,1016.4
2018-08-30T10:29:15.441Z,1016.49
2018-08-30T10:30:24.408Z,1016.4
2018-08-30T10:31:33.892Z,1016.43
2018-08-30T10:32:44.033Z,1016.4
2018-08-30T10:33:52.944Z,1016.44
2018-08-30T10:35:02.126Z,1016.42
2018-08-30T10:36:11.308Z,1016.38
2018-08-30T10:37:21.014Z,1016.38
2018-08-30T10:38:30.697Z,1016.44
2018-08-30T10:39:40.134Z,1016.41
2018-08-30T10:40:49.569Z,1016.37
2018-08-30T10:41:59.234Z,1016.34
2018-08-30T10:43:08.671Z,1016.34
2018-08-30T10:44:17.611Z,1016.39
2018-08-30T10:45:27.293Z,1016.45
2018-08-30T10:46:36.729Z,1016.45
2018-08-30T10:47:46.141Z,1016.47
2018-08-30T10:48:55.573Z,1016.44
2018-08-30T10:50:04.996Z,1016.42
2018-08-30T10:51:14.454Z,1016.43
2018-08-30T10:52:23.615Z,1016.45
2018-08-30T10:53:33.034Z,1016.46
2018-08-30T10:54:42.485Z,1016.41
2018-08-30T10:55:51.661Z,1016.45
2018-08-30T10:57:00.825Z,1016.41
2018-08-30T10:58:09.767Z,1016.45
2018-08-30T10:59:19.484Z,1016.38
2018-08-30T11:00:29.172Z,1016.42
2018-08-30T11:01:38.598Z,1016.44
2018-08-30T11:02:47.771Z,1016.38
2018-08-30T11:03:57.003Z,1016.42
2018-08-30T11:05:06.448Z,1016.45
2018-08-30T11:06:16.132Z,1016.45
2018-08-30T11:07:25.023Z,1016.43
2018-08-30T11:08:34.446Z,1016.46
2018-08-30T11:09:44.126Z,1016.54
2018-08-30T11:10:53.933Z,1016.48
2018-08-30T11:12:03.359Z,1016.51
2018-08-30T11:13:13.322Z,1016.49
2018-08-30T11:14:23.323Z,1016.54
2018-08-30T11:15:33.011Z,1016.54
2018-08-30T11:16:42.464Z,1016.47
2018-08-30T11:17:51.635Z,1016.48
2018-08-30T11:19:00.809Z,1016.45
2018-08-30T11:20:09.977Z,1016.44
2018-08-30T11:21:19.149Z,1016.51
2018-08-30T11:22:28.827Z,1016.44
2018-08-30T11:23:38.280Z,1016.48
2018-08-30T11:24:47.500Z,1016.55
2018-08-30T11:25:56.677Z,1016.49
2018-08-30T11:27:05.853Z,1016.51
2018-08-30T11:28:15.866Z,1016.55
2018-08-30T11:29:25.291Z,1016.52
2018-08-30T11:30:34.728Z,1016.55
2018-08-30T11:31:43.893Z,1016.51
2018-08-30T11:32:53.341Z,1016.56
2018-08-30T11:34:03.291Z,1016.57
2018-08-30T11:35:12.456Z,1016.53
2018-08-30T11:36:21.634Z,1016.56
2018-08-30T11:37:30.597Z,1016.52
2018-08-30T11:38:40.786Z,1016.48
2018-08-30T11:39:49.711Z,1016.45
2018-08-30T11:40:59.397Z,1016.49
2018-08-30T11:42:08.587Z,1016.52
2018-08-30T11:43:18.393Z,1016.46
2018-08-30T11:44:28.602Z,1016.49
2018-08-30T11:45:38.050Z,1016.53
2018-08-30T11:46:47.986Z,1016.46
2018-08-30T11:47:57.164Z,1016.53
2018-08-30T11:49:06.610Z,1016.5
2018-08-30T11:50:16.103Z,1016.45
2018-08-30T11:51:25.220Z,1016.49
2018-08-30T11:52:34.954Z,1016.57
2018-08-30T11:53:44.912Z,1016.54
2018-08-30T11:54:54.340Z,1016.54
2018-08-30T11:56:03.506Z,1016.52
2018-08-30T11:57:12.951Z,1016.53
2018-08-30T11:58:22.147Z,1016.46
2018-08-30T11:59:31.314Z,1016.53
2018-08-30T12:00:41.285Z,1016.57
2018-08-30T12:01:50.851Z,1016.52
2018-08-30T12:03:00.522Z,1016.61
2018-08-30T12:04:10.557Z,1016.64
2018-08-30T12:05:19.978Z,1016.64
2018-08-30T12:06:29.641Z,1016.62
2018-08-30T12:07:39.373Z,1016.65
2018-08-30T12:08:48.680Z,1016.64
2018-08-30T12:09:57.590Z,1016.65
2018-08-30T12:11:07.419Z,1016.66
2018-08-30T12:12:16.882Z,1016.64
2018-08-30T12:13:25.544Z,1016.67
2018-08-30T12:14:34.959Z,1016.71
2018-08-30T12:15:44.142Z,1016.78
2018-08-30T12:16:53.562Z,1016.73
2018-08-30T12:18:03.021Z,1016.74
2018-08-30T12:19:11.946Z,1016.7
2018-08-30T12:20:21.646Z,1016.68
2018-08-30T12:21:30.945Z,1016.72
2018-08-30T12:22:40.628Z,1016.72
2018-08-30T12:23:50.050Z,1016.73
2018-08-30T12:24:59.739Z,1016.74
2018-08-30T12:26:09.160Z,1016.75
2018-08-30T12:27:18.082Z,1016.73
2018-08-30T12:28:27.560Z,1016.65
2018-08-30T12:29:37.949Z,1016.77
2018-08-30T12:30:47.709Z,1016.78
2018-08-30T12:31:57.277Z,1016.75
2018-08-30T12:33:07.169Z,1016.77
2018-08-30T12:34:17.400Z,1016.69
2018-08-30T12:35:26.859Z,1016.73
2018-08-30T12:36:36.677Z,1016.75
2018-08-30T12:37:46.942Z,1016.74
2018-08-30T12:38:56.484Z,1016.76
2018-08-30T12:40:05.961Z,1016.72
2018-08-30T12:41:16.529Z,1016.72
2018-08-30T12:42:25.882Z,1016.69
2018-08-30T12:43:35.406Z,1016.69
2018-08-30T12:44:45.011Z,1016.66
2018-08-30T12:45:54.621Z,1016.71
2018-08-30T12:47:03.611Z,1016.74
2018-08-30T12:48:13.099Z,1016.74
2018-08-30T12:49:22.902Z,1016.73
2018-08-30T12:50:32.551Z,1016.73
2018-08-30T12:51:43.561Z,1016.72
2018-08-30T12:52:54.542Z,1016.73
2018-08-30T12:54:05.637Z,1016.69
2018-08-30T12:55:16.101Z,1016.7
2018-08-30T12:56:25.739Z,1016.73
2018-08-30T12:57:34.860Z,1016.77
2018-08-30T12:58:45.992Z,1016.78
2018-08-30T12:59:56.094Z,1016.81
2018-08-30T13:01:06.487Z,1016.8
2018-08-30T13:02:16.448Z,1016.78
2018-08-30T13:03:26.772Z,1016.79
2018-08-30T13:04:37.959Z,1016.81
2018-08-30T13:05:49.606Z,1016.78
2018-08-30T13:07:00.997Z,1016.79
2018-08-30T13:08:12.698Z,1016.76
2018-08-30T13:09:24.352Z,1016.71
2018-08-30T13:10:35.847Z,1016.74
2018-08-30T13:11:47.834Z,1016.76
2018-08-30T13:12:59.616Z,1016.82
2018-08-30T13:14:11.159Z,1016.87
2018-08-30T13:15:23.510Z,1016.91
2018-08-30T13:16:34.898Z,1016.84
2018-08-30T13:17:45.225Z,1016.94
2018-08-30T13:18:57.260Z,1016.92
2018-08-30T13:20:08.958Z,1016.91
2018-08-30T13:21:18.815Z,1016.92
2018-08-30T13:22:28.819Z,1016.89
2018-08-30T13:23:41.871Z,1016.87
2018-08-30T13:24:53.117Z,1016.91
2018-08-30T13:26:05.047Z,1016.85
2018-08-30T13:27:16.804Z,1016.81
2018-08-30T13:28:27.480Z,1016.79
2018-08-30T13:29:39.207Z,1016.77
2018-08-30T13:30:51.697Z,1016.81
2018-08-30T13:32:04.505Z,1016.73
2018-08-30T13:33:19.908Z,1016.71
2018-08-30T13:34:32.489Z,1016.75
2018-08-30T13:35:45.633Z,1016.71
2018-08-30T13:36:57.853Z,1016.71
2018-08-30T13:38:10.861Z,1016.72
2018-08-30T13:39:25.284Z,1016.71
2018-08-30T13:40:39.810Z,1016.76
2018-08-30T13:41:54.483Z,1016.75
2018-08-30T13:43:07.188Z,1016.74
2018-08-30T13:44:16.746Z,1016.72
2018-08-30T13:45:28.380Z,1016.74
2018-08-30T13:46:40.202Z,1016.67
2018-08-30T13:47:50.761Z,1016.68
2018-08-30T13:49:03.481Z,1016.72
2018-08-30T13:50:15.975Z,1016.69
2018-08-30T13:51:26.778Z,1016.74
2018-08-30T13:52:38.496Z,1016.84
2018-08-30T13:53:51.582Z,1016.75
2018-08-30T13:55:03.606Z,1016.84
2018-08-30T13:56:15.552Z,1016.85
2018-08-30T13:57:29.016Z,1016.81
2018-08-30T13:58:44.091Z,1016.84
2018-08-30T13:59:58.207Z,1016.87
2018-08-30T14:01:12.177Z,1016.86
2018-08-30T14:02:25.914Z,1016.89
2018-08-30T14:03:35.570Z,1016.86
2018-08-30T14:04:47.016Z,1016.85